This is the latest recevied weather packets stored in our database for station/object OM5ZU-10. If no packets are shown the sender has not sent any weather packets the latest 10 day(s).
| Time | Temp. | Humidity | Pressure | Rain* | Wind** | Luminosity | Snow |
|---|---|---|---|---|---|---|---|
| 1788070895 | 22.22° C | 59% | 1017.2 hPa | - | - | - | - |
| 1788069994 | 21.11° C | 62% | 1017.2 hPa | - | - | - | - |
| 1788069094 | 20° C | 65% | 1017.1 hPa | - | - | - | - |
| 1788068194 | 20° C | 64% | 1017.1 hPa | - | - | - | - |
| 1788067294 | 18.89° C | 67% | 1017 hPa | - | - | - | - |
| 1788066394 | 17.78° C | 71% | 1017 hPa | - | - | - | - |
| 1788065493 | 15.56° C | 80% | 1017 hPa | - | - | - | - |
| 1788064593 | 13.89° C | 87% | 1017.1 hPa | - | - | - | - |
| 1788063693 | 12.22° C | 91% | 1017 hPa | - | - | - | - |
| 1788062793 | 12.22° C | 91% | 1016.8 hPa | - | - | - | - |
| 1788061893 | 12.22° C | 92% | 1016.8 hPa | - | - | - | - |
| 1788060993 | 12.22° C | 90% | 1016.7 hPa | - | - | - | - |
| 1788060093 | 12.22° C | 90% | 1016.7 hPa | - | - | - | - |
| 1788059192 | 12.78° C | 89% | 1016.7 hPa | - | - | - | - |
| 1788058292 | 13.33° C | 89% | 1016.7 hPa | - | - | - | - |
| 1788057392 | 12.78° C | 89% | 1016.5 hPa | - | - | - | - |
| 1788056492 | 12.78° C | 90% | 1016.6 hPa | - | - | - | - |
| 1788055592 | 12.22° C | 90% | 1016.5 hPa | - | - | - | - |
| 1788054692 | 12.22° C | 90% | 1016.6 hPa | - | - | - | - |
| 1788053791 | 12.22° C | 91% | 1016.4 hPa | - | - | - | - |
| 1788052891 | 12.22° C | 91% | 1016.5 hPa | - | - | - | - |
| 1788051991 | 12.78° C | 89% | 1016.3 hPa | - | - | - | - |
| 1788051091 | 12.78° C | 89% | 1016.3 hPa | - | - | - | - |
| 1788050191 | 12.78° C | 90% | 1016.2 hPa | - | - | - | - |
| 1788049291 | 12.78° C | 87% | 1016.3 hPa | - | - | - | - |
* Rain since midnight (hover to see other rain measurements)
** Current wind speed in m/s (hover to see current wind gust speed)